This is the latest recevied weather packets stored in our database for station/object W4JCW. If no packets are shown the sender has not sent any weather packets the latest 10 day(s).
| Time | Temp. | Humidity | Pressure | Rain* | Wind** | Luminosity | Snow |
|---|---|---|---|---|---|---|---|
| 1777576072 | 22.22° C | 68% | 1008.1 hPa | 0 mm | - | 541 W/m² | - |
| 1777575768 | 22.78° C | 67% | 1008.3 hPa | 0 mm | - | 328 W/m² | - |
| 1777575464 | 22.78° C | 67% | 1008.1 hPa | 0 mm | - | 364 W/m² | - |
| 1777575160 | 22.78° C | 66% | 1008.4 hPa | 0 mm | - | 528 W/m² | - |
| 1777574856 | 22.78° C | 67% | 1008.2 hPa | 0 mm | - | 543 W/m² | - |
| 1777574554 | 22.78° C | 65% | 1008.2 hPa | 0 mm | - | 454 W/m² | - |
| 1777574249 | 22.78° C | 66% | 1008.4 hPa | 0 mm | - | 548 W/m² | - |
| 1777573945 | 22.22° C | 70% | 1008.3 hPa | 0 mm | - | 586 W/m² | - |
| 1777573640 | 22.22° C | 69% | 1008.2 hPa | 0 mm | - | 607 W/m² | - |
| 1777573336 | 21.67° C | 72% | 1008.2 hPa | 0 mm | - | 534 W/m² | - |
| 1777573032 | 21.67° C | 72% | 1008.3 hPa | 0 mm | - | 330 W/m² | - |
| 1777572729 | 21.67° C | 71% | 1008.2 hPa | 0 mm | - | 275 W/m² | - |
| 1777572429 | 21.67° C | 72% | 1008.4 hPa | 0 mm | - | 452 W/m² | - |
| 1777572125 | 21.11° C | 75% | 1008.3 hPa | 0 mm | - | 583 W/m² | - |
| 1777571821 | 21.11° C | 73% | 1008.3 hPa | 0 mm | - | 237 W/m² | - |
| 1777571517 | 21.67° C | 71% | 1008.5 hPa | 0 mm | - | 234 W/m² | - |
| 1777571214 | 21.67° C | 74% | 1008.5 hPa | 0 mm | - | 622 W/m² | - |
| 1777570909 | 21.11° C | 73% | 1008.8 hPa | 0 mm | - | 300 W/m² | - |
| 1777570606 | 21.11° C | 70% | 1008.5 hPa | 0 mm | - | 512 W/m² | - |
| 1777570303 | 21.11° C | 71% | 1008.7 hPa | 0 mm | - | 436 W/m² | - |
| 1777569998 | 21.11° C | 72% | 1008.7 hPa | 0 mm | - | 381 W/m² | - |
| 1777569694 | 21.11° C | 76% | 1008.6 hPa | 0 mm | - | 461 W/m² | - |
| 1777569390 | 20.56° C | 77% | 1008.6 hPa | 0 mm | - | 472 W/m² | - |
| 1777569087 | 20.56° C | 75% | 1008.6 hPa | 0 mm | - | 343 W/m² | - |
| 1777568784 | 20° C | 77% | 1008.9 hPa | 0 mm | - | 319 W/m² | - |
* Rain latest hour (hover to see other rain measurements)
** Current wind speed in m/s (hover to see current wind gust speed)